sensor_id;sensor_type;location;lat;lon;timestamp;P1;durP1;ratioP1;P2;durP2;ratioP2
58196;SDS011;43999;51.660;5.616;2023-05-10T00:02:09;43.40;;;29.08;;
58196;SDS011;43999;51.660;5.616;2023-05-10T00:04:37;36.65;;;25.20;;
58196;SDS011;43999;51.660;5.616;2023-05-10T00:07:05;37.80;;;25.13;;
58196;SDS011;43999;51.660;5.616;2023-05-10T00:09:32;38.33;;;26.05;;
58196;SDS011;43999;51.660;5.616;2023-05-10T00:11:59;38.47;;;25.70;;
58196;SDS011;43999;51.660;5.616;2023-05-10T00:14:26;34.83;;;24.02;;
58196;SDS011;43999;51.660;5.616;2023-05-10T00:16:55;41.65;;;27.58;;
58196;SDS011;43999;51.660;5.616;2023-05-10T00:19:23;39.00;;;27.70;;
58196;SDS011;43999;51.660;5.616;2023-05-10T00:21:52;39.75;;;27.63;;
58196;SDS011;43999;51.660;5.616;2023-05-10T00:24:20;43.53;;;26.45;;
58196;SDS011;43999;51.660;5.616;2023-05-10T00:26:49;45.33;;;30.23;;
58196;SDS011;43999;51.660;5.616;2023-05-10T00:29:16;54.35;;;30.83;;
58196;SDS011;43999;51.660;5.616;2023-05-10T00:31:44;46.25;;;30.17;;
58196;SDS011;43999;51.660;5.616;2023-05-10T00:34:21;45.42;;;30.58;;
58196;SDS011;43999;51.660;5.616;2023-05-10T00:36:49;45.15;;;29.33;;
58196;SDS011;43999;51.660;5.616;2023-05-10T00:39:18;48.03;;;30.55;;
58196;SDS011;43999;51.660;5.616;2023-05-10T00:41:45;47.45;;;32.72;;
58196;SDS011;43999;51.660;5.616;2023-05-10T00:44:15;52.05;;;32.95;;
58196;SDS011;43999;51.660;5.616;2023-05-10T00:46:44;50.88;;;34.70;;
58196;SDS011;43999;51.660;5.616;2023-05-10T00:49:14;56.80;;;35.90;;
58196;SDS011;43999;51.660;5.616;2023-05-10T00:51:45;48.47;;;34.28;;
58196;SDS011;43999;51.660;5.616;2023-05-10T00:54:14;46.08;;;32.38;;
58196;SDS011;43999;51.660;5.616;2023-05-10T00:56:45;51.95;;;34.72;;
58196;SDS011;43999;51.660;5.616;2023-05-10T00:59:18;53.47;;;35.30;;
58196;SDS011;43999;51.660;5.616;2023-05-10T01:01:48;48.67;;;34.90;;
58196;SDS011;43999;51.660;5.616;2023-05-10T01:04:16;58.55;;;35.97;;
58196;SDS011;43999;51.660;5.616;2023-05-10T01:06:44;62.47;;;39.00;;
58196;SDS011;43999;51.660;5.616;2023-05-10T01:09:13;54.53;;;37.10;;
58196;SDS011;43999;51.660;5.616;2023-05-10T01:11:41;51.85;;;32.20;;
58196;SDS011;43999;51.660;5.616;2023-05-10T01:14:09;53.17;;;33.70;;
58196;SDS011;43999;51.660;5.616;2023-05-10T01:16:40;59.35;;;37.35;;
58196;SDS011;43999;51.660;5.616;2023-05-10T01:19:34;60.15;;;39.33;;
58196;SDS011;43999;51.660;5.616;2023-05-10T01:41:28;62.63;;;39.67;;
58196;SDS011;43999;51.660;5.616;2023-05-10T01:44:24;59.78;;;43.47;;
58196;SDS011;43999;51.660;5.616;2023-05-10T01:47:43;66.30;;;42.17;;
58196;SDS011;43999;51.660;5.616;2023-05-10T01:50:25;58.33;;;40.72;;
58196;SDS011;43999;51.660;5.616;2023-05-10T01:53:00;67.47;;;42.53;;
58196;SDS011;43999;51.660;5.616;2023-05-10T01:55:35;85.15;;;51.25;;
58196;SDS011;43999;51.660;5.616;2023-05-10T01:58:15;79.15;;;50.10;;
58196;SDS011;43999;51.660;5.616;2023-05-10T02:00:56;68.30;;;47.80;;
58196;SDS011;43999;51.660;5.616;2023-05-10T02:03:32;69.95;;;43.72;;
58196;SDS011;43999;51.660;5.616;2023-05-10T02:06:08;71.47;;;48.25;;
58196;SDS011;43999;51.660;5.616;2023-05-10T02:08:41;76.35;;;49.90;;
58196;SDS011;43999;51.660;5.616;2023-05-10T02:11:13;81.22;;;50.10;;
58196;SDS011;43999;51.660;5.616;2023-05-10T02:13:49;75.60;;;50.40;;
58196;SDS011;43999;51.660;5.616;2023-05-10T02:16:27;86.80;;;52.90;;
58196;SDS011;43999;51.660;5.616;2023-05-10T02:18:58;83.28;;;58.88;;
58196;SDS011;43999;51.660;5.616;2023-05-10T02:21:31;100.97;;;60.17;;
58196;SDS011;43999;51.660;5.616;2023-05-10T02:24:01;108.88;;;65.47;;
58196;SDS011;43999;51.660;5.616;2023-05-10T02:26:33;95.47;;;60.22;;
58196;SDS011;43999;51.660;5.616;2023-05-10T02:29:07;119.10;;;66.60;;
58196;SDS011;43999;51.660;5.616;2023-05-10T02:31:39;104.25;;;64.40;;
58196;SDS011;43999;51.660;5.616;2023-05-10T02:34:18;133.77;;;72.05;;
58196;SDS011;43999;51.660;5.616;2023-05-10T02:36:53;125.75;;;72.03;;
58196;SDS011;43999;51.660;5.616;2023-05-10T02:39:25;131.93;;;68.25;;
58196;SDS011;43999;51.660;5.616;2023-05-10T02:42:04;127.45;;;72.68;;
58196;SDS011;43999;51.660;5.616;2023-05-10T02:44:34;118.35;;;66.70;;
58196;SDS011;43999;51.660;5.616;2023-05-10T02:47:10;106.18;;;65.57;;
58196;SDS011;43999;51.660;5.616;2023-05-10T02:49:48;118.93;;;69.10;;
58196;SDS011;43999;51.660;5.616;2023-05-10T02:52:16;106.32;;;66.72;;
58196;SDS011;43999;51.660;5.616;2023-05-10T02:54:58;105.70;;;65.13;;
58196;SDS011;43999;51.660;5.616;2023-05-10T02:57:33;106.95;;;65.45;;
58196;SDS011;43999;51.660;5.616;2023-05-10T03:00:11;95.72;;;63.45;;
58196;SDS011;43999;51.660;5.616;2023-05-10T03:02:41;104.85;;;64.53;;
58196;SDS011;43999;51.660;5.616;2023-05-10T03:05:09;109.43;;;69.10;;
58196;SDS011;43999;51.660;5.616;2023-05-10T03:07:37;113.15;;;70.32;;
58196;SDS011;43999;51.660;5.616;2023-05-10T03:10:06;99.65;;;64.60;;
58196;SDS011;43999;51.660;5.616;2023-05-10T03:16:05;120.32;;;78.40;;
58196;SDS011;43999;51.660;5.616;2023-05-10T03:19:17;90.88;;;59.33;;
58196;SDS011;43999;51.660;5.616;2023-05-10T03:21:47;96.50;;;60.90;;
58196;SDS011;43999;51.660;5.616;2023-05-10T03:24:34;94.30;;;61.05;;
58196;SDS011;43999;51.660;5.616;2023-05-10T03:27:05;93.93;;;62.42;;
58196;SDS011;43999;51.660;5.616;2023-05-10T03:29:37;96.78;;;63.45;;
58196;SDS011;43999;51.660;5.616;2023-05-10T03:32:06;98.38;;;62.20;;
58196;SDS011;43999;51.660;5.616;2023-05-10T03:34:41;100.22;;;63.78;;
58196;SDS011;43999;51.660;5.616;2023-05-10T03:39:42;95.97;;;58.47;;
58196;SDS011;43999;51.660;5.616;2023-05-10T03:42:09;98.35;;;69.30;;
58196;SDS011;43999;51.660;5.616;2023-05-10T03:44:39;120.18;;;75.68;;
58196;SDS011;43999;51.660;5.616;2023-05-10T03:47:07;105.90;;;66.20;;
58196;SDS011;43999;51.660;5.616;2023-05-10T03:49:36;109.97;;;69.50;;
58196;SDS011;43999;51.660;5.616;2023-05-10T03:52:04;106.03;;;65.85;;
58196;SDS011;43999;51.660;5.616;2023-05-10T03:54:34;103.80;;;67.90;;
58196;SDS011;43999;51.660;5.616;2023-05-10T03:57:02;107.45;;;67.85;;
58196;SDS011;43999;51.660;5.616;2023-05-10T03:59:31;102.95;;;68.22;;
58196;SDS011;43999;51.660;5.616;2023-05-10T04:01:58;104.55;;;66.95;;
58196;SDS011;43999;51.660;5.616;2023-05-10T04:04:26;97.05;;;65.97;;
58196;SDS011;43999;51.660;5.616;2023-05-10T04:06:53;97.43;;;67.57;;
58196;SDS011;43999;51.660;5.616;2023-05-10T04:09:24;112.20;;;70.93;;
58196;SDS011;43999;51.660;5.616;2023-05-10T04:11:52;108.45;;;68.75;;
58196;SDS011;43999;51.660;5.616;2023-05-10T04:14:20;92.63;;;62.25;;
58196;SDS011;43999;51.660;5.616;2023-05-10T04:16:48;106.00;;;64.50;;
58196;SDS011;43999;51.660;5.616;2023-05-10T04:19:15;101.20;;;66.07;;
58196;SDS011;43999;51.660;5.616;2023-05-10T04:21:47;80.75;;;57.67;;
58196;SDS011;43999;51.660;5.616;2023-05-10T04:24:15;89.22;;;58.70;;
58196;SDS011;43999;51.660;5.616;2023-05-10T04:26:45;86.53;;;59.80;;
58196;SDS011;43999;51.660;5.616;2023-05-10T04:29:14;95.00;;;63.03;;
58196;SDS011;43999;51.660;5.616;2023-05-10T04:31:46;76.95;;;52.75;;
58196;SDS011;43999;51.660;5.616;2023-05-10T04:34:15;83.30;;;55.40;;
58196;SDS011;43999;51.660;5.616;2023-05-10T04:36:42;75.13;;;51.15;;
58196;SDS011;43999;51.660;5.616;2023-05-10T04:39:10;80.60;;;53.92;;
58196;SDS011;43999;51.660;5.616;2023-05-10T04:41:38;70.40;;;46.22;;
58196;SDS011;43999;51.660;5.616;2023-05-10T04:44:25;60.92;;;42.67;;
58196;SDS011;43999;51.660;5.616;2023-05-10T04:46:54;74.05;;;45.28;;
58196;SDS011;43999;51.660;5.616;2023-05-10T04:49:26;60.92;;;44.08;;
58196;SDS011;43999;51.660;5.616;2023-05-10T04:51:57;76.35;;;50.50;;
58196;SDS011;43999;51.660;5.616;2023-05-10T04:54:27;67.43;;;45.10;;
58196;SDS011;43999;51.660;5.616;2023-05-10T04:56:55;73.53;;;47.85;;
58196;SDS011;43999;51.660;5.616;2023-05-10T04:59:23;67.93;;;46.80;;
58196;SDS011;43999;51.660;5.616;2023-05-10T05:01:51;66.68;;;42.85;;
58196;SDS011;43999;51.660;5.616;2023-05-10T05:04:20;66.15;;;46.17;;
58196;SDS011;43999;51.660;5.616;2023-05-10T05:06:49;58.08;;;46.10;;
58196;SDS011;43999;51.660;5.616;2023-05-10T05:09:20;59.13;;;40.95;;
58196;SDS011;43999;51.660;5.616;2023-05-10T05:11:49;66.97;;;44.17;;
58196;SDS011;43999;51.660;5.616;2023-05-10T05:14:17;60.58;;;43.28;;
58196;SDS011;43999;51.660;5.616;2023-05-10T05:16:47;63.70;;;42.60;;
58196;SDS011;43999;51.660;5.616;2023-05-10T05:19:14;67.82;;;45.03;;
58196;SDS011;43999;51.660;5.616;2023-05-10T05:21:43;65.93;;;43.53;;
58196;SDS011;43999;51.660;5.616;2023-05-10T05:24:11;59.78;;;42.53;;
58196;SDS011;43999;51.660;5.616;2023-05-10T05:26:39;65.35;;;42.42;;
58196;SDS011;43999;51.660;5.616;2023-05-10T05:29:06;53.47;;;39.40;;
58196;SDS011;43999;51.660;5.616;2023-05-10T05:31:34;58.10;;;38.40;;
58196;SDS011;43999;51.660;5.616;2023-05-10T05:34:02;51.35;;;36.80;;
58196;SDS011;43999;51.660;5.616;2023-05-10T05:36:31;45.83;;;33.75;;
58196;SDS011;43999;51.660;5.616;2023-05-10T05:39:05;59.72;;;40.13;;
58196;SDS011;43999;51.660;5.616;2023-05-10T05:41:35;54.50;;;40.45;;
58196;SDS011;43999;51.660;5.616;2023-05-10T05:44:02;53.63;;;38.58;;
58196;SDS011;43999;51.660;5.616;2023-05-10T05:46:31;57.75;;;38.95;;
58196;SDS011;43999;51.660;5.616;2023-05-10T05:48:59;54.92;;;38.47;;
58196;SDS011;43999;51.660;5.616;2023-05-10T05:51:27;53.40;;;37.58;;
58196;SDS011;43999;51.660;5.616;2023-05-10T05:53:56;53.28;;;42.17;;
58196;SDS011;43999;51.660;5.616;2023-05-10T05:56:23;52.47;;;38.65;;
58196;SDS011;43999;51.660;5.616;2023-05-10T05:58:51;55.40;;;42.95;;
58196;SDS011;43999;51.660;5.616;2023-05-10T06:01:19;46.08;;;35.75;;
58196;SDS011;43999;51.660;5.616;2023-05-10T06:03:47;52.22;;;37.90;;
58196;SDS011;43999;51.660;5.616;2023-05-10T06:06:18;60.17;;;43.10;;
58196;SDS011;43999;51.660;5.616;2023-05-10T06:08:46;49.47;;;37.55;;
58196;SDS011;43999;51.660;5.616;2023-05-10T06:11:15;46.40;;;35.95;;
58196;SDS011;43999;51.660;5.616;2023-05-10T06:13:42;56.45;;;41.33;;
58196;SDS011;43999;51.660;5.616;2023-05-10T06:16:11;55.55;;;40.40;;
58196;SDS011;43999;51.660;5.616;2023-05-10T06:18:40;60.15;;;39.85;;
58196;SDS011;43999;51.660;5.616;2023-05-10T06:21:08;49.90;;;38.35;;
58196;SDS011;43999;51.660;5.616;2023-05-10T06:23:35;48.50;;;36.42;;
58196;SDS011;43999;51.660;5.616;2023-05-10T06:26:03;54.33;;;40.83;;
58196;SDS011;43999;51.660;5.616;2023-05-10T06:28:31;48.50;;;37.47;;
58196;SDS011;43999;51.660;5.616;2023-05-10T06:31:01;45.88;;;36.47;;
58196;SDS011;43999;51.660;5.616;2023-05-10T06:33:33;47.63;;;35.17;;
58196;SDS011;43999;51.660;5.616;2023-05-10T06:36:01;44.17;;;34.45;;
58196;SDS011;43999;51.660;5.616;2023-05-10T06:38:31;45.88;;;35.47;;
58196;SDS011;43999;51.660;5.616;2023-05-10T06:41:00;44.92;;;35.22;;
58196;SDS011;43999;51.660;5.616;2023-05-10T06:43:28;42.90;;;34.63;;
58196;SDS011;43999;51.660;5.616;2023-05-10T06:45:56;43.22;;;33.22;;
58196;SDS011;43999;51.660;5.616;2023-05-10T06:48:25;47.30;;;38.10;;
58196;SDS011;43999;51.660;5.616;2023-05-10T06:51:07;45.70;;;34.92;;
58196;SDS011;43999;51.660;5.616;2023-05-10T06:53:43;55.35;;;37.13;;
58196;SDS011;43999;51.660;5.616;2023-05-10T06:56:11;48.88;;;35.85;;
58196;SDS011;43999;51.660;5.616;2023-05-10T06:58:41;50.28;;;36.85;;
58196;SDS011;43999;51.660;5.616;2023-05-10T07:01:09;49.10;;;38.45;;
58196;SDS011;43999;51.660;5.616;2023-05-10T07:03:38;46.33;;;34.67;;
58196;SDS011;43999;51.660;5.616;2023-05-10T07:06:08;52.22;;;40.97;;
58196;SDS011;43999;51.660;5.616;2023-05-10T07:08:58;54.92;;;39.67;;
58196;SDS011;43999;51.660;5.616;2023-05-10T07:11:25;51.10;;;36.95;;
58196;SDS011;43999;51.660;5.616;2023-05-10T07:13:53;51.28;;;39.58;;
58196;SDS011;43999;51.660;5.616;2023-05-10T07:16:21;48.45;;;35.80;;
58196;SDS011;43999;51.660;5.616;2023-05-10T07:18:49;44.08;;;35.13;;
58196;SDS011;43999;51.660;5.616;2023-05-10T07:21:20;50.17;;;36.38;;
58196;SDS011;43999;51.660;5.616;2023-05-10T07:23:51;49.97;;;35.90;;
58196;SDS011;43999;51.660;5.616;2023-05-10T07:26:19;58.25;;;34.13;;
58196;SDS011;43999;51.660;5.616;2023-05-10T07:28:48;39.55;;;33.13;;
58196;SDS011;43999;51.660;5.616;2023-05-10T07:31:15;42.90;;;33.78;;
58196;SDS011;43999;51.660;5.616;2023-05-10T07:33:43;46.70;;;36.17;;
58196;SDS011;43999;51.660;5.616;2023-05-10T07:36:10;45.95;;;34.70;;
58196;SDS011;43999;51.660;5.616;2023-05-10T07:38:38;51.75;;;40.05;;
58196;SDS011;43999;51.660;5.616;2023-05-10T07:41:06;49.20;;;38.95;;
58196;SDS011;43999;51.660;5.616;2023-05-10T07:43:33;51.40;;;38.67;;
58196;SDS011;43999;51.660;5.616;2023-05-10T07:46:02;46.10;;;38.17;;
58196;SDS011;43999;51.660;5.616;2023-05-10T07:48:29;46.45;;;36.22;;
58196;SDS011;43999;51.660;5.616;2023-05-10T07:50:58;46.63;;;37.20;;
58196;SDS011;43999;51.660;5.616;2023-05-10T07:53:25;44.78;;;36.20;;
58196;SDS011;43999;51.660;5.616;2023-05-10T07:55:54;46.05;;;35.33;;
58196;SDS011;43999;51.660;5.616;2023-05-10T07:58:25;49.80;;;36.90;;
58196;SDS011;43999;51.660;5.616;2023-05-10T08:00:53;43.70;;;36.05;;
58196;SDS011;43999;51.660;5.616;2023-05-10T08:03:28;47.50;;;33.90;;
58196;SDS011;43999;51.660;5.616;2023-05-10T08:05:55;42.15;;;33.38;;
58196;SDS011;43999;51.660;5.616;2023-05-10T08:08:23;39.92;;;33.83;;
58196;SDS011;43999;51.660;5.616;2023-05-10T08:10:50;45.63;;;36.65;;
58196;SDS011;43999;51.660;5.616;2023-05-10T08:13:18;42.70;;;36.00;;
58196;SDS011;43999;51.660;5.616;2023-05-10T08:15:53;40.35;;;32.80;;
58196;SDS011;43999;51.660;5.616;2023-05-10T08:18:21;45.38;;;36.50;;
58196;SDS011;43999;51.660;5.616;2023-05-10T08:21:01;41.67;;;35.70;;
58196;SDS011;43999;51.660;5.616;2023-05-10T08:23:31;46.42;;;35.55;;
58196;SDS011;43999;51.660;5.616;2023-05-10T08:25:59;46.03;;;33.33;;
58196;SDS011;43999;51.660;5.616;2023-05-10T08:28:27;44.38;;;38.58;;
58196;SDS011;43999;51.660;5.616;2023-05-10T08:30:55;49.20;;;37.40;;
58196;SDS011;43999;51.660;5.616;2023-05-10T08:33:24;45.55;;;36.72;;
58196;SDS011;43999;51.660;5.616;2023-05-10T08:35:52;43.67;;;37.75;;
58196;SDS011;43999;51.660;5.616;2023-05-10T08:38:19;47.30;;;37.13;;
58196;SDS011;43999;51.660;5.616;2023-05-10T08:40:48;51.80;;;39.95;;
58196;SDS011;43999;51.660;5.616;2023-05-10T08:43:26;44.80;;;36.13;;
58196;SDS011;43999;51.660;5.616;2023-05-10T08:45:56;41.20;;;36.00;;
58196;SDS011;43999;51.660;5.616;2023-05-10T08:48:33;42.15;;;36.80;;
58196;SDS011;43999;51.660;5.616;2023-05-10T08:51:02;40.17;;;35.45;;
58196;SDS011;43999;51.660;5.616;2023-05-10T08:53:32;45.63;;;34.13;;
58196;SDS011;43999;51.660;5.616;2023-05-10T08:56:03;44.58;;;35.67;;
58196;SDS011;43999;51.660;5.616;2023-05-10T08:58:35;35.88;;;31.98;;
58196;SDS011;43999;51.660;5.616;2023-05-10T09:01:05;40.08;;;35.97;;
58196;SDS011;43999;51.660;5.616;2023-05-10T09:03:33;35.42;;;31.83;;
58196;SDS011;43999;51.660;5.616;2023-05-10T09:06:05;33.53;;;30.20;;
58196;SDS011;43999;51.660;5.616;2023-05-10T09:08:35;33.65;;;29.55;;
58196;SDS011;43999;51.660;5.616;2023-05-10T09:11:08;33.15;;;29.95;;
58196;SDS011;43999;51.660;5.616;2023-05-10T09:13:50;36.25;;;30.02;;
58196;SDS011;43999;51.660;5.616;2023-05-10T09:16:20;34.50;;;29.98;;
58196;SDS011;43999;51.660;5.616;2023-05-10T09:18:50;36.05;;;28.42;;
58196;SDS011;43999;51.660;5.616;2023-05-10T09:21:19;38.58;;;28.88;;
58196;SDS011;43999;51.660;5.616;2023-05-10T09:23:47;33.67;;;30.10;;
58196;SDS011;43999;51.660;5.616;2023-05-10T09:26:16;29.25;;;26.17;;
58196;SDS011;43999;51.660;5.616;2023-05-10T09:28:54;30.50;;;27.30;;
58196;SDS011;43999;51.660;5.616;2023-05-10T09:34:31;30.13;;;26.85;;
58196;SDS011;43999;51.660;5.616;2023-05-10T09:37:01;25.73;;;23.05;;
58196;SDS011;43999;51.660;5.616;2023-05-10T09:42:02;24.92;;;22.33;;
58196;SDS011;43999;51.660;5.616;2023-05-10T09:44:39;26.33;;;23.00;;
58196;SDS011;43999;51.660;5.616;2023-05-10T09:47:09;25.30;;;22.08;;
58196;SDS011;43999;51.660;5.616;2023-05-10T09:49:36;26.48;;;23.88;;
58196;SDS011;43999;51.660;5.616;2023-05-10T09:52:05;25.27;;;21.58;;
58196;SDS011;43999;51.660;5.616;2023-05-10T09:54:34;23.23;;;20.77;;
58196;SDS011;43999;51.660;5.616;2023-05-10T09:57:06;25.33;;;21.92;;
58196;SDS011;43999;51.660;5.616;2023-05-10T09:59:48;23.55;;;20.35;;
58196;SDS011;43999;51.660;5.616;2023-05-10T10:02:19;26.13;;;23.42;;
58196;SDS011;43999;51.660;5.616;2023-05-10T10:04:48;22.02;;;19.70;;
58196;SDS011;43999;51.660;5.616;2023-05-10T10:07:21;24.52;;;22.02;;
58196;SDS011;43999;51.660;5.616;2023-05-10T10:12:21;19.98;;;17.98;;
58196;SDS011;43999;51.660;5.616;2023-05-10T10:14:49;21.48;;;19.30;;
58196;SDS011;43999;51.660;5.616;2023-05-10T10:17:20;23.90;;;21.38;;
58196;SDS011;43999;51.660;5.616;2023-05-10T10:19:49;18.92;;;17.17;;
58196;SDS011;43999;51.660;5.616;2023-05-10T10:22:19;24.80;;;22.45;;
58196;SDS011;43999;51.660;5.616;2023-05-10T10:24:46;26.63;;;23.88;;
58196;SDS011;43999;51.660;5.616;2023-05-10T10:27:19;21.23;;;18.75;;
58196;SDS011;43999;51.660;5.616;2023-05-10T10:30:15;23.35;;;20.92;;
58196;SDS011;43999;51.660;5.616;2023-05-10T10:33:10;21.10;;;18.63;;
58196;SDS011;43999;51.660;5.616;2023-05-10T10:36:22;23.35;;;19.83;;
58196;SDS011;43999;51.660;5.616;2023-05-10T10:41:35;18.95;;;17.10;;
58196;SDS011;43999;51.660;5.616;2023-05-10T10:52:40;21.70;;;19.60;;
58196;SDS011;43999;51.660;5.616;2023-05-10T10:55:21;24.98;;;22.58;;
58196;SDS011;43999;51.660;5.616;2023-05-10T10:57:56;25.23;;;22.88;;
58196;SDS011;43999;51.660;5.616;2023-05-10T11:00:33;25.65;;;21.58;;
58196;SDS011;43999;51.660;5.616;2023-05-10T11:03:09;30.55;;;25.27;;
58196;SDS011;43999;51.660;5.616;2023-05-10T11:05:42;25.63;;;22.92;;
58196;SDS011;43999;51.660;5.616;2023-05-10T11:08:27;26.42;;;23.70;;
58196;SDS011;43999;51.660;5.616;2023-05-10T11:16:44;26.45;;;23.58;;
58196;SDS011;43999;51.660;5.616;2023-05-10T11:19:19;28.40;;;25.48;;
58196;SDS011;43999;51.660;5.616;2023-05-10T11:21:51;24.90;;;22.33;;
58196;SDS011;43999;51.660;5.616;2023-05-10T11:25:00;24.05;;;21.50;;
58196;SDS011;43999;51.660;5.616;2023-05-10T11:27:36;25.70;;;23.13;;
58196;SDS011;43999;51.660;5.616;2023-05-10T11:30:06;27.75;;;24.83;;
58196;SDS011;43999;51.660;5.616;2023-05-10T11:32:46;27.13;;;24.20;;
58196;SDS011;43999;51.660;5.616;2023-05-10T11:35:23;27.30;;;24.52;;
58196;SDS011;43999;51.660;5.616;2023-05-10T11:37:57;28.05;;;25.20;;
58196;SDS011;43999;51.660;5.616;2023-05-10T11:40:30;27.05;;;24.00;;
58196;SDS011;43999;51.660;5.616;2023-05-10T11:43:03;29.58;;;26.52;;
58196;SDS011;43999;51.660;5.616;2023-05-10T11:45:41;27.95;;;24.33;;
58196;SDS011;43999;51.660;5.616;2023-05-10T11:48:13;27.52;;;24.63;;
58196;SDS011;43999;51.660;5.616;2023-05-10T11:50:44;31.95;;;28.63;;
58196;SDS011;43999;51.660;5.616;2023-05-10T11:53:13;28.95;;;25.95;;
58196;SDS011;43999;51.660;5.616;2023-05-10T11:55:52;22.55;;;17.90;;
58196;SDS011;43999;51.660;5.616;2023-05-10T11:58:31;17.70;;;15.88;;
58196;SDS011;43999;51.660;5.616;2023-05-10T12:01:07;15.38;;;14.00;;
58196;SDS011;43999;51.660;5.616;2023-05-10T12:10:28;14.18;;;12.82;;
58196;SDS011;43999;51.660;5.616;2023-05-10T12:13:18;14.48;;;13.07;;
58196;SDS011;43999;51.660;5.616;2023-05-10T12:15:47;15.80;;;14.25;;
58196;SDS011;43999;51.660;5.616;2023-05-10T12:18:23;16.40;;;14.77;;
58196;SDS011;43999;51.660;5.616;2023-05-10T12:20:52;16.25;;;14.65;;
58196;SDS011;43999;51.660;5.616;2023-05-10T12:23:21;17.50;;;15.73;;
58196;SDS011;43999;51.660;5.616;2023-05-10T12:25:49;17.23;;;15.25;;
58196;SDS011;43999;51.660;5.616;2023-05-10T12:28:22;16.52;;;14.73;;
58196;SDS011;43999;51.660;5.616;2023-05-10T12:30:49;17.15;;;15.05;;
58196;SDS011;43999;51.660;5.616;2023-05-10T12:33:21;17.02;;;15.27;;
58196;SDS011;43999;51.660;5.616;2023-05-10T12:35:49;19.77;;;17.95;;
58196;SDS011;43999;51.660;5.616;2023-05-10T12:41:18;22.92;;;20.40;;
58196;SDS011;43999;51.660;5.616;2023-05-10T12:43:53;27.15;;;22.50;;
58196;SDS011;43999;51.660;5.616;2023-05-10T12:47:01;17.85;;;15.95;;
58196;SDS011;43999;51.660;5.616;2023-05-10T12:49:29;21.95;;;19.95;;
58196;SDS011;43999;51.660;5.616;2023-05-10T12:51:57;20.52;;;18.45;;
58196;SDS011;43999;51.660;5.616;2023-05-10T12:54:27;20.83;;;18.63;;
58196;SDS011;43999;51.660;5.616;2023-05-10T12:56:59;19.77;;;17.35;;
58196;SDS011;43999;51.660;5.616;2023-05-10T12:59:27;21.30;;;19.02;;
58196;SDS011;43999;51.660;5.616;2023-05-10T13:02:04;22.15;;;19.92;;
58196;SDS011;43999;51.660;5.616;2023-05-10T13:04:48;20.25;;;18.13;;
58196;SDS011;43999;51.660;5.616;2023-05-10T13:07:18;19.27;;;17.38;;
58196;SDS011;43999;51.660;5.616;2023-05-10T13:09:46;19.35;;;17.45;;
58196;SDS011;43999;51.660;5.616;2023-05-10T13:12:15;22.58;;;19.80;;
58196;SDS011;43999;51.660;5.616;2023-05-10T13:14:45;25.00;;;20.52;;
58196;SDS011;43999;51.660;5.616;2023-05-10T13:17:25;31.42;;;23.13;;
58196;SDS011;43999;51.660;5.616;2023-05-10T13:19:54;18.20;;;15.63;;
58196;SDS011;43999;51.660;5.616;2023-05-10T13:22:22;12.45;;;10.20;;
58196;SDS011;43999;51.660;5.616;2023-05-10T13:25:06;12.70;;;9.95;;
58196;SDS011;43999;51.660;5.616;2023-05-10T13:27:42;5.82;;;4.63;;
58196;SDS011;43999;51.660;5.616;2023-05-10T13:30:13;6.85;;;6.25;;
58196;SDS011;43999;51.660;5.616;2023-05-10T13:32:44;6.53;;;4.88;;
58196;SDS011;43999;51.660;5.616;2023-05-10T13:35:12;8.50;;;5.55;;
58196;SDS011;43999;51.660;5.616;2023-05-10T13:37:39;8.18;;;4.93;;
58196;SDS011;43999;51.660;5.616;2023-05-10T13:40:07;6.05;;;5.45;;
58196;SDS011;43999;51.660;5.616;2023-05-10T13:42:35;6.18;;;4.80;;
58196;SDS011;43999;51.660;5.616;2023-05-10T13:45:05;8.70;;;6.40;;
58196;SDS011;43999;51.660;5.616;2023-05-10T13:47:33;8.98;;;7.75;;
58196;SDS011;43999;51.660;5.616;2023-05-10T13:50:00;9.43;;;8.52;;
58196;SDS011;43999;51.660;5.616;2023-05-10T13:52:37;12.90;;;11.60;;
58196;SDS011;43999;51.660;5.616;2023-05-10T13:55:04;12.77;;;11.45;;
58196;SDS011;43999;51.660;5.616;2023-05-10T13:57:34;13.48;;;12.05;;
58196;SDS011;43999;51.660;5.616;2023-05-10T14:00:03;14.43;;;12.95;;
58196;SDS011;43999;51.660;5.616;2023-05-10T14:02:36;13.27;;;12.07;;
58196;SDS011;43999;51.660;5.616;2023-05-10T14:05:07;13.50;;;12.23;;
58196;SDS011;43999;51.660;5.616;2023-05-10T14:07:50;15.05;;;13.52;;
58196;SDS011;43999;51.660;5.616;2023-05-10T14:10:17;15.13;;;13.73;;
58196;SDS011;43999;51.660;5.616;2023-05-10T14:12:45;15.77;;;14.27;;
58196;SDS011;43999;51.660;5.616;2023-05-10T14:15:12;14.77;;;13.15;;
58196;SDS011;43999;51.660;5.616;2023-05-10T14:17:47;13.52;;;12.25;;
58196;SDS011;43999;51.660;5.616;2023-05-10T14:20:17;14.65;;;13.15;;
58196;SDS011;43999;51.660;5.616;2023-05-10T14:22:45;14.82;;;13.40;;
58196;SDS011;43999;51.660;5.616;2023-05-10T14:25:14;15.05;;;13.60;;
58196;SDS011;43999;51.660;5.616;2023-05-10T14:27:43;17.00;;;15.50;;
58196;SDS011;43999;51.660;5.616;2023-05-10T14:30:22;16.88;;;15.23;;
58196;SDS011;43999;51.660;5.616;2023-05-10T14:32:50;17.52;;;15.82;;
58196;SDS011;43999;51.660;5.616;2023-05-10T14:35:19;18.27;;;16.55;;
58196;SDS011;43999;51.660;5.616;2023-05-10T14:37:52;17.23;;;15.70;;
58196;SDS011;43999;51.660;5.616;2023-05-10T14:40:26;19.50;;;17.80;;
58196;SDS011;43999;51.660;5.616;2023-05-10T14:42:55;20.15;;;18.35;;
58196;SDS011;43999;51.660;5.616;2023-05-10T14:45:22;20.88;;;18.85;;
58196;SDS011;43999;51.660;5.616;2023-05-10T14:47:51;24.27;;;21.98;;
58196;SDS011;43999;51.660;5.616;2023-05-10T14:50:22;22.60;;;20.52;;
58196;SDS011;43999;51.660;5.616;2023-05-10T14:53:13;23.15;;;20.85;;
58196;SDS011;43999;51.660;5.616;2023-05-10T14:55:58;21.25;;;19.35;;
58196;SDS011;43999;51.660;5.616;2023-05-10T14:58:35;27.05;;;24.55;;
58196;SDS011;43999;51.660;5.616;2023-05-10T15:01:04;26.88;;;24.48;;
58196;SDS011;43999;51.660;5.616;2023-05-10T15:03:41;30.40;;;27.60;;
58196;SDS011;43999;51.660;5.616;2023-05-10T15:06:09;29.77;;;26.92;;
58196;SDS011;43999;51.660;5.616;2023-05-10T15:08:37;26.48;;;23.92;;
58196;SDS011;43999;51.660;5.616;2023-05-10T15:11:05;30.92;;;28.02;;
58196;SDS011;43999;51.660;5.616;2023-05-10T15:13:34;28.63;;;26.00;;
58196;SDS011;43999;51.660;5.616;2023-05-10T15:16:03;23.48;;;20.98;;
58196;SDS011;43999;51.660;5.616;2023-05-10T15:18:33;21.40;;;19.58;;
58196;SDS011;43999;51.660;5.616;2023-05-10T15:21:01;26.45;;;24.10;;
58196;SDS011;43999;51.660;5.616;2023-05-10T15:23:36;27.98;;;25.48;;
58196;SDS011;43999;51.660;5.616;2023-05-10T15:26:04;27.77;;;25.23;;
58196;SDS011;43999;51.660;5.616;2023-05-10T15:28:32;27.67;;;25.13;;
58196;SDS011;43999;51.660;5.616;2023-05-10T15:31:00;24.45;;;22.13;;
58196;SDS011;43999;51.660;5.616;2023-05-10T15:33:28;29.92;;;27.10;;
58196;SDS011;43999;51.660;5.616;2023-05-10T15:35:57;25.55;;;23.25;;
58196;SDS011;43999;51.660;5.616;2023-05-10T15:38:26;28.02;;;25.23;;
58196;SDS011;43999;51.660;5.616;2023-05-10T15:40:59;31.23;;;28.17;;
58196;SDS011;43999;51.660;5.616;2023-05-10T15:43:26;33.30;;;30.20;;
58196;SDS011;43999;51.660;5.616;2023-05-10T15:45:55;33.00;;;29.90;;
58196;SDS011;43999;51.660;5.616;2023-05-10T15:48:23;37.50;;;34.03;;